createdAt,value
2018-08-18T00:00:27.475Z,89.70
2018-08-18T00:04:35.587Z,89.90
2018-08-18T00:08:43.691Z,89.80
2018-08-18T00:12:52.083Z,89.70
2018-08-18T00:17:00.219Z,89.60
2018-08-18T00:21:08.332Z,89.60
2018-08-18T00:25:16.480Z,89.50
2018-08-18T00:29:24.588Z,90.00
2018-08-18T00:33:32.708Z,90.20
2018-08-18T00:37:40.851Z,90.60
2018-08-18T00:41:48.967Z,90.60
2018-08-18T00:45:57.075Z,90.50
2018-08-18T00:54:13.105Z,90.30
2018-08-18T00:58:29.887Z,90.10
2018-08-18T01:02:38.035Z,90.20
2018-08-18T01:06:46.167Z,90.00
2018-08-18T01:10:54.403Z,89.90
2018-08-18T01:15:02.439Z,90.40
2018-08-18T01:19:10.712Z,90.00
2018-08-18T01:23:18.832Z,90.10
2018-08-18T01:27:26.971Z,90.00
2018-08-18T01:31:35.104Z,90.10
2018-08-18T01:35:43.232Z,90.10
2018-08-18T01:39:53.514Z,90.20
2018-08-18T01:44:22.431Z,90.40
2018-08-18T01:48:30.564Z,90.50
2018-08-18T01:52:38.704Z,90.60
2018-08-18T01:56:48.896Z,90.40
2018-08-18T02:00:57.041Z,90.60
2018-08-18T02:05:16.596Z,90.90
2018-08-18T02:09:24.751Z,91.00
2018-08-18T02:13:32.965Z,90.90
2018-08-18T02:17:40.424Z,90.70
2018-08-18T02:21:48.557Z,90.60
2018-08-18T02:25:56.692Z,90.70
2018-08-18T02:30:14.452Z,91.00
2018-08-18T02:34:22.573Z,91.10
2018-08-18T02:38:30.726Z,91.10
2018-08-18T02:42:38.872Z,91.10
2018-08-18T02:46:47.032Z,91.10
2018-08-18T02:50:55.180Z,91.10
2018-08-18T02:55:04.532Z,91.00
2018-08-18T02:59:12.692Z,91.00
2018-08-18T03:03:20.852Z,91.00
2018-08-18T03:07:32.844Z,90.90
2018-08-18T03:11:43.011Z,90.90
2018-08-18T03:15:51.676Z,91.00
2018-08-18T03:19:59.818Z,91.00
2018-08-18T03:24:14.696Z,91.00
2018-08-18T03:28:22.940Z,91.30
2018-08-18T03:32:31.076Z,91.20
2018-08-18T03:36:40.628Z,91.20
2018-08-18T03:40:48.812Z,91.40
2018-08-18T03:44:57.244Z,91.50
2018-08-18T03:49:05.387Z,91.90
2018-08-18T03:53:16.668Z,91.40
2018-08-18T03:57:30.241Z,91.40
2018-08-18T04:01:41.190Z,92.00
2018-08-18T04:05:49.264Z,92.00
2018-08-18T04:10:01.884Z,91.70
2018-08-18T04:14:10.021Z,91.70
2018-08-18T04:18:18.164Z,92.10
2018-08-18T04:22:26.285Z,91.80
2018-08-18T04:26:34.426Z,91.90
2018-08-18T04:30:42.600Z,91.80
2018-08-18T04:34:50.734Z,91.80
2018-08-18T04:38:58.977Z,91.90
2018-08-18T04:43:07.116Z,92.10
2018-08-18T04:47:26.656Z,91.80
2018-08-18T04:51:34.959Z,91.70
2018-08-18T04:55:43.122Z,91.70
2018-08-18T04:59:51.249Z,91.70
2018-08-18T05:04:03.752Z,91.60
2018-08-18T05:08:11.880Z,91.80
2018-08-18T05:12:20.013Z,91.00
2018-08-18T05:16:28.259Z,90.90
2018-08-18T05:20:36.379Z,89.70
2018-08-18T05:24:44.531Z,87.30
2018-08-18T05:28:52.655Z,85.00
2018-08-18T05:33:00.780Z,83.40
2018-08-18T05:37:08.904Z,81.10
2018-08-18T05:41:17.047Z,79.40
2018-08-18T05:45:26.915Z,79.40
2018-08-18T05:49:35.056Z,79.60
2018-08-18T05:53:43.177Z,79.60
2018-08-18T05:57:51.289Z,79.70
2018-08-18T06:01:59.416Z,79.60
2018-08-18T06:06:07.541Z,79.40
2018-08-18T06:10:15.665Z,79.40
2018-08-18T06:14:23.767Z,79.70
2018-08-18T06:18:31.985Z,79.20
2018-08-18T06:22:40.137Z,78.70
2018-08-18T06:26:48.240Z,78.00
2018-08-18T06:30:56.356Z,77.40
2018-08-18T06:35:05.444Z,76.70
2018-08-18T06:39:13.535Z,76.00
2018-08-18T06:43:21.644Z,75.20
2018-08-18T06:47:29.867Z,74.20
2018-08-18T06:51:38.035Z,73.70
2018-08-18T06:55:46.283Z,73.10
2018-08-18T06:59:55.700Z,72.30
2018-08-18T07:04:03.836Z,71.60
2018-08-18T07:08:11.980Z,71.10
2018-08-18T07:12:20.112Z,70.10
2018-08-18T07:16:28.267Z,69.70
2018-08-18T07:20:36.547Z,68.50
2018-08-18T07:24:44.689Z,67.40
2018-08-18T07:28:52.929Z,66.00
2018-08-18T07:33:01.511Z,65.80
2018-08-18T07:37:09.686Z,63.90
2018-08-18T07:41:17.781Z,63.30
2018-08-18T07:45:25.944Z,62.30
2018-08-18T07:49:34.178Z,60.70
2018-08-18T07:53:42.299Z,60.60
2018-08-18T07:57:55.892Z,59.70
2018-08-18T08:02:04.049Z,58.30
2018-08-18T08:06:12.175Z,57.60
2018-08-18T08:10:20.336Z,56.20
2018-08-18T08:14:28.467Z,55.00
2018-08-18T08:18:36.607Z,54.60
2018-08-18T08:22:45.200Z,54.30
2018-08-18T08:26:53.328Z,52.30
2018-08-18T08:31:01.472Z,51.00
2018-08-18T08:35:10.452Z,50.50
2018-08-18T08:39:18.594Z,49.10
2018-08-18T08:43:34.856Z,48.90
2018-08-18T08:47:43.636Z,47.80
2018-08-18T08:51:51.759Z,47.10
2018-08-18T08:55:59.872Z,45.60
2018-08-18T09:00:08.932Z,46.10
2018-08-18T09:04:17.053Z,45.80
2018-08-18T09:08:25.184Z,45.10
2018-08-18T09:12:33.304Z,45.30
2018-08-18T09:16:41.428Z,43.70
2018-08-18T09:20:49.544Z,43.50
2018-08-18T09:25:01.511Z,43.20
2018-08-18T09:29:09.643Z,43.30
2018-08-18T09:33:17.755Z,40.40
2018-08-18T09:37:25.897Z,39.20
2018-08-18T09:41:34.014Z,38.10
2018-08-18T09:45:42.139Z,38.90
2018-08-18T09:49:50.274Z,39.40
2018-08-18T09:53:58.445Z,39.40
2018-08-18T09:58:06.896Z,39.00
2018-08-18T10:02:15.019Z,39.60
2018-08-18T10:06:23.180Z,39.90
2018-08-18T10:10:31.327Z,39.90
2018-08-18T10:14:39.451Z,37.00
2018-08-18T10:18:47.577Z,35.50
2018-08-18T10:22:55.712Z,36.70
2018-08-18T10:27:05.293Z,36.70
2018-08-18T10:31:12.740Z,36.70
2018-08-18T10:35:24.621Z,36.70
2018-08-18T10:39:32.997Z,36.40
2018-08-18T10:43:41.063Z,37.40
2018-08-18T10:47:49.200Z,37.10
2018-08-18T10:52:02.378Z,36.20
2018-08-18T10:56:09.840Z,35.80
2018-08-18T11:00:20.226Z,35.40
2018-08-18T11:04:29.461Z,34.70
2018-08-18T11:08:37.600Z,35.00
2018-08-18T11:12:45.704Z,32.50
2018-08-18T11:16:53.826Z,33.90
2018-08-18T11:21:01.956Z,33.90
2018-08-18T11:25:10.048Z,34.10
2018-08-18T11:29:19.431Z,33.80
2018-08-18T11:33:41.692Z,34.90
2018-08-18T11:37:57.192Z,35.90
2018-08-18T11:42:05.331Z,34.30
2018-08-18T11:46:12.788Z,35.00
2018-08-18T11:50:20.948Z,34.80
2018-08-18T11:54:29.091Z,35.30
2018-08-18T11:58:37.220Z,32.80
2018-08-18T12:02:49.976Z,33.00
2018-08-18T12:06:59.084Z,33.30
2018-08-18T12:11:07.886Z,34.30
2018-08-18T12:15:15.957Z,33.70
2018-08-18T12:19:24.095Z,34.00
2018-08-18T12:23:33.855Z,33.30
2018-08-18T12:31:49.929Z,32.40
2018-08-18T12:35:58.083Z,33.80
2018-08-18T12:40:06.240Z,33.20
2018-08-18T12:44:14.796Z,32.40
2018-08-18T12:48:22.964Z,32.40
2018-08-18T12:52:40.965Z,31.20
2018-08-18T12:56:49.083Z,32.10
2018-08-18T13:00:57.217Z,31.50
2018-08-18T13:05:05.330Z,29.50
2018-08-18T13:09:14.625Z,28.60
2018-08-18T13:13:22.847Z,28.30
2018-08-18T13:17:30.989Z,28.20
2018-08-18T13:21:39.161Z,29.50
2018-08-18T13:25:47.456Z,29.70
2018-08-18T13:29:55.587Z,30.40
2018-08-18T13:34:03.705Z,30.10
2018-08-18T13:38:26.365Z,30.50
2018-08-18T13:42:34.484Z,31.50
2018-08-18T13:46:49.957Z,30.90
2018-08-18T13:50:58.040Z,30.00
2018-08-18T13:55:06.161Z,29.20
2018-08-18T13:59:17.241Z,29.30
2018-08-18T14:03:27.456Z,31.20
2018-08-18T14:07:50.915Z,31.50
2018-08-18T14:12:03.248Z,31.30
2018-08-18T14:16:11.440Z,31.50
2018-08-18T14:20:19.561Z,31.70
2018-08-18T14:24:32.826Z,31.70
2018-08-18T14:28:41.016Z,30.90
2018-08-18T14:32:49.157Z,30.60
2018-08-18T14:37:10.546Z,30.60
2018-08-18T14:41:42.899Z,31.40
2018-08-18T14:45:51.236Z,31.60
2018-08-18T14:50:13.056Z,31.90
2018-08-18T14:54:26.187Z,31.50
2018-08-18T14:58:34.928Z,31.30
2018-08-18T15:02:43.023Z,31.50
2018-08-18T15:06:51.367Z,31.50
2018-08-18T15:10:59.479Z,30.90
2018-08-18T15:15:07.588Z,31.00
2018-08-18T15:19:15.732Z,31.70
2018-08-18T15:23:23.872Z,32.50
2018-08-18T15:27:32.008Z,32.70
2018-08-18T15:31:40.139Z,32.30
2018-08-18T15:35:47.590Z,32.30
2018-08-18T15:39:56.300Z,32.50
2018-08-18T15:44:06.569Z,33.20
2018-08-18T15:48:14.856Z,33.20
2018-08-18T15:52:27.247Z,34.00
2018-08-18T15:56:35.752Z,33.80
2018-08-18T16:00:43.906Z,34.50
2018-08-18T16:04:52.048Z,35.10
2018-08-18T16:09:00.199Z,34.70
2018-08-18T16:13:08.343Z,34.10
2018-08-18T16:17:16.494Z,35.00
2018-08-18T16:21:24.601Z,34.70
2018-08-18T16:25:35.192Z,34.60
2018-08-18T16:29:43.356Z,34.80
2018-08-18T16:33:52.472Z,35.90
2018-08-18T16:38:00.621Z,36.00
2018-08-18T16:42:09.031Z,35.40
2018-08-18T16:46:30.999Z,36.30
2018-08-18T16:50:39.957Z,36.70
2018-08-18T16:54:48.080Z,36.00
2018-08-18T16:58:58.592Z,36.10
2018-08-18T17:03:06.720Z,36.60
2018-08-18T17:07:22.837Z,37.00
2018-08-18T17:11:30.949Z,37.50
2018-08-18T17:15:39.096Z,36.60
2018-08-18T17:19:47.219Z,34.30
2018-08-18T17:23:55.353Z,31.80
2018-08-18T17:28:03.464Z,31.00
2018-08-18T17:32:11.612Z,29.80
2018-08-18T17:36:19.737Z,28.40
2018-08-18T17:40:27.979Z,27.90
2018-08-18T17:44:36.110Z,28.50
2018-08-18T17:48:49.536Z,29.20
2018-08-18T17:52:57.689Z,28.80
2018-08-18T17:57:06.519Z,28.70
2018-08-18T18:01:14.664Z,30.60
2018-08-18T18:05:25.321Z,33.60
2018-08-18T18:09:34.437Z,35.20
2018-08-18T18:13:42.577Z,36.80
2018-08-18T18:17:52.530Z,38.10
2018-08-18T18:22:00.652Z,38.90
2018-08-18T18:26:08.809Z,40.40
2018-08-18T18:30:17.514Z,41.80
2018-08-18T18:34:25.643Z,42.50
2018-08-18T18:38:48.265Z,43.40
2018-08-18T18:42:56.391Z,44.40
2018-08-18T18:47:04.816Z,46.10
2018-08-18T18:51:12.953Z,46.80
2018-08-18T18:55:21.125Z,48.10
2018-08-18T18:59:29.261Z,48.40
2018-08-18T19:03:37.384Z,47.90
2018-08-18T19:11:54.929Z,49.50
2018-08-18T19:16:03.077Z,49.90
2018-08-18T19:20:22.585Z,49.80
2018-08-18T19:24:30.692Z,50.10
2018-08-18T19:28:38.880Z,50.70
2018-08-18T19:32:46.973Z,51.40
2018-08-18T19:37:10.059Z,52.10
2018-08-18T19:41:18.192Z,52.70
2018-08-18T19:45:26.317Z,53.40
2018-08-18T19:49:39.582Z,53.90
2018-08-18T19:53:47.718Z,54.40
2018-08-18T19:57:55.871Z,54.80
2018-08-18T20:02:04.037Z,55.20
2018-08-18T20:06:17.774Z,55.80
2018-08-18T20:10:25.903Z,56.50
2018-08-18T20:14:34.272Z,57.10
2018-08-18T20:18:42.567Z,57.50
2018-08-18T20:22:50.928Z,57.80
2018-08-18T20:26:59.503Z,58.10
2018-08-18T20:31:07.681Z,58.30
2018-08-18T20:35:16.257Z,58.50
2018-08-18T20:39:26.558Z,59.30
2018-08-18T20:43:34.832Z,60.10
2018-08-18T20:47:44.157Z,60.10
2018-08-18T20:51:52.307Z,60.30
2018-08-18T20:56:01.849Z,61.00
2018-08-18T21:00:11.253Z,61.60
2018-08-18T21:04:19.271Z,62.50
2018-08-18T21:08:27.384Z,62.70
2018-08-18T21:12:40.820Z,63.80
2018-08-18T21:16:48.936Z,63.50
2018-08-18T21:20:57.065Z,63.90
2018-08-18T21:25:05.835Z,64.70
2018-08-18T21:29:14.021Z,65.10
2018-08-18T21:33:24.611Z,65.50
2018-08-18T21:37:32.717Z,66.40
2018-08-18T21:41:42.228Z,67.30
2018-08-18T21:45:52.341Z,67.70
2018-08-18T21:50:00.472Z,67.80
2018-08-18T21:54:08.598Z,68.00
2018-08-18T21:58:16.724Z,68.30
2018-08-18T22:02:37.959Z,68.60
2018-08-18T22:06:46.092Z,69.40
2018-08-18T22:10:56.655Z,69.70
2018-08-18T22:15:16.292Z,70.00
2018-08-18T22:19:24.690Z,70.30
2018-08-18T22:23:32.810Z,71.00
2018-08-18T22:27:40.916Z,71.60
2018-08-18T22:31:49.045Z,72.20
2018-08-18T22:35:58.075Z,72.50
2018-08-18T22:40:06.937Z,73.10
2018-08-18T22:44:15.067Z,73.40
2018-08-18T22:48:23.184Z,74.00
2018-08-18T22:52:31.309Z,74.70
2018-08-18T22:56:39.884Z,75.00
2018-08-18T23:00:50.921Z,75.00
2018-08-18T23:04:59.048Z,75.20
2018-08-18T23:09:07.159Z,75.30
2018-08-18T23:13:15.748Z,75.80
2018-08-18T23:17:23.888Z,76.10
2018-08-18T23:21:32.012Z,76.00
2018-08-18T23:25:40.135Z,76.70
2018-08-18T23:29:48.248Z,77.20
2018-08-18T23:33:56.381Z,78.00
2018-08-18T23:38:04.566Z,78.30
2018-08-18T23:42:14.799Z,78.30
2018-08-18T23:46:22.933Z,78.70
2018-08-18T23:50:31.073Z,79.10
2018-08-18T23:54:39.205Z,79.20
2018-08-18T23:58:47.328Z,79.20
